Time;durP1;ratioP1;P1;durP2;ratioP2;P2;SDS_P1;SDS_P2;PMS_P1;PMS_P2;Temp;Humidity;BMP_temperature;BMP_pressure;BME280_temperature;BME280_humidity;BME280_pressure;Samples;Min_cycle;Max_cycle;Signal;HPM_P1;HPM_P2
2021/01/26 00:01:04;;;;;;;0.50;0.50;;;5.30;99.90;;;;;;5018122;28;20267;-78
2021/01/26 00:03:29;;;;;;;0.40;0.40;;;5.40;99.90;;;;;;5035760;28;20167;-78
2021/01/26 00:05:55;;;;;;;0.20;0.20;;;5.20;99.90;;;;;;5035583;28;20215;-78
2021/01/26 00:08:21;;;;;;;11.80;1.30;;;5.30;99.90;;;;;;5035890;28;20148;-78
2021/01/26 00:10:47;;;;;;;0.30;0.30;;;5.40;99.90;;;;;;5035807;28;20164;-78
2021/01/26 00:13:14;;;;;;;0.30;0.30;;;5.30;99.90;;;;;;5035778;28;20160;-78
2021/01/26 00:15:40;;;;;;;0.65;0.65;;;5.30;99.90;;;;;;5035939;28;20601;-78
2021/01/26 00:18:07;;;;;;;0.50;0.50;;;5.40;99.90;;;;;;5035633;28;20519;-79
2021/01/26 00:20:32;;;;;;;1.27;1.17;;;5.20;99.90;;;;;;5017701;28;20551;-78
2021/01/26 00:22:58;;;;;;;0.20;0.20;;;5.20;99.90;;;;;;5035623;28;20252;-78
2021/01/26 00:25:33;;;;;;;0.63;0.63;;;5.20;99.90;;;;;;5035425;28;20208;-79
2021/01/26 00:27:59;;;;;;;0.63;0.63;;;5.20;99.90;;;;;;5035389;28;20194;-79
2021/01/26 00:30:31;;;;;;;0.20;0.20;;;5.40;99.90;;;;;;5017613;28;20221;-78
2021/01/26 00:32:58;;;;;;;0.35;0.35;;;5.40;99.90;;;;;;5035380;28;20164;-78
2021/01/26 00:35:25;;;;;;;0.80;0.80;;;5.20;99.90;;;;;;5035379;28;20184;-78
2021/01/26 00:37:51;;;;;;;3.85;1.58;;;5.30;99.90;;;;;;5035293;28;20167;-78
2021/01/26 00:40:17;;;;;;;3.10;1.30;;;5.40;99.90;;;;;;5035217;28;20163;-78
2021/01/26 00:42:43;;;;;;;0.40;0.40;;;5.40;99.90;;;;;;5035017;28;20192;-78
2021/01/26 00:45:10;;;;;;;0.50;0.50;;;5.40;99.90;;;;;;5017302;28;20555;-78
2021/01/26 00:47:35;;;;;;;0.93;0.93;;;5.40;99.90;;;;;;5016709;28;20183;-79
2021/01/26 00:50:03;;;;;;;42.03;2.67;;;5.50;99.90;;;;;;5034973;28;20164;-78
2021/01/26 00:52:28;;;;;;;7.68;1.55;;;5.50;99.90;;;;;;5034866;28;20160;-79
2021/01/26 00:54:54;;;;;;;0.43;0.43;;;5.50;99.90;;;;;;5034741;28;20659;-79
2021/01/26 00:57:20;;;;;;;0.40;0.40;;;5.30;99.90;;;;;;5017027;28;20175;-78
2021/01/26 00:59:47;;;;;;;33.67;3.88;;;5.20;99.90;;;;;;5034858;28;20200;-79
2021/01/26 01:02:13;;;;;;;0.90;0.68;;;5.20;99.90;;;;;;5034883;28;20156;-78
2021/01/26 01:04:39;;;;;;;0.65;0.65;;;5.30;99.90;;;;;;5016642;28;20247;-77
2021/01/26 01:07:05;;;;;;;4.07;1.95;;;5.40;99.90;;;;;;5034690;28;20168;-78
2021/01/26 01:09:30;;;;;;;4.22;0.63;;;5.40;99.90;;;;;;5034642;28;20511;-79
2021/01/26 01:11:56;;;;;;;22.40;1.75;;;5.40;99.90;;;;;;5034680;28;20160;-79
2021/01/26 01:14:23;;;;;;;1.13;0.47;;;5.30;99.90;;;;;;5034683;28;20168;-79
2021/01/26 01:16:49;;;;;;;0.30;0.30;;;5.40;99.90;;;;;;5016700;28;20187;-79
2021/01/26 01:19:15;;;;;;;3.67;0.75;;;5.40;99.90;;;;;;5034517;28;20502;-79
2021/01/26 01:21:40;;;;;;;0.50;0.50;;;5.40;99.90;;;;;;5034411;28;20676;-78
2021/01/26 01:24:06;;;;;;;0.38;0.38;;;5.30;99.90;;;;;;5016553;28;20266;-79
2021/01/26 01:26:33;;;;;;;0.30;0.30;;;5.20;99.90;;;;;;5016478;28;20218;-79
2021/01/26 01:28:59;;;;;;;0.85;0.55;;;5.00;99.90;;;;;;5034315;28;20168;-79
2021/01/26 01:31:24;;;;;;;10.18;1.63;;;5.00;99.90;;;;;;5016533;28;20201;-78
2021/01/26 01:33:50;;;;;;;2.13;1.23;;;4.90;99.90;;;;;;5034178;28;20198;-79
2021/01/26 01:36:17;;;;;;;0.55;0.55;;;4.90;99.90;;;;;;5034132;28;20206;-78
2021/01/26 01:38:42;;;;;;;0.30;0.30;;;4.80;99.90;;;;;;5034064;28;20151;-78
2021/01/26 01:41:08;;;;;;;0.20;0.20;;;4.80;99.90;;;;;;5033941;28;20180;-78
2021/01/26 01:43:33;;;;;;;0.57;0.57;;;4.70;99.90;;;;;;5034022;28;20669;-78
2021/01/26 01:45:59;;;;;;;66.88;3.80;;;4.70;99.90;;;;;;5015925;28;20231;-77
2021/01/26 01:48:33;;;;;;;0.40;0.40;;;4.70;99.90;;;;;;5033937;28;20206;-78
2021/01/26 01:51:07;;;;;;;0.20;0.20;;;4.70;99.90;;;;;;5033945;28;20175;-78
2021/01/26 01:53:39;;;;;;;0.57;0.57;;;4.70;99.90;;;;;;5033757;28;20194;-78
2021/01/26 01:56:22;;;;;;;0.20;0.20;;;4.80;99.90;;;;;;5033786;28;20190;-77
2021/01/26 01:58:55;;;;;;;0.20;0.20;;;4.90;99.90;;;;;;5033003;28;20218;-77
2021/01/26 02:01:24;;;;;;;0.30;0.30;;;4.80;99.90;;;;;;5016030;28;20168;-78
2021/01/26 02:03:57;;;;;;;0.65;0.65;;;4.70;99.90;;;;;;5033656;28;20558;-77
2021/01/26 02:06:27;;;;;;;0.68;0.68;;;4.70;99.90;;;;;;5015698;28;20219;-78
2021/01/26 02:08:58;;;;;;;1.25;1.08;;;4.60;99.90;;;;;;5033514;28;20160;-77
2021/01/26 02:11:24;;;;;;;0.22;0.22;;;4.60;99.90;;;;;;5033569;28;20163;-77
2021/01/26 02:13:50;;;;;;;0.50;0.50;;;4.50;99.90;;;;;;5033360;28;20666;-77
2021/01/26 02:16:27;;;;;;;0.38;0.38;;;4.50;99.90;;;;;;5033440;28;20195;-78
2021/01/26 02:19:05;;;;;;;0.20;0.20;;;4.50;99.90;;;;;;5015674;28;20234;-78
2021/01/26 02:22:01;;;;;;;0.55;0.40;;;4.50;99.90;;;;;;5015740;28;20171;-77
2021/01/26 02:24:48;;;;;;;0.28;0.28;;;4.50;99.90;;;;;;5015634;28;20168;-78
2021/01/26 02:27:37;;;;;;;1.42;0.50;;;4.50;99.90;;;;;;5015607;28;20184;-77
2021/01/26 02:30:25;;;;;;;1.98;1.10;;;4.30;99.90;;;;;;5033142;28;20535;-77
2021/01/26 02:33:30;;;;;;;0.20;0.20;;;4.30;99.90;;;;;;5033140;28;20163;-78
2021/01/26 02:36:35;;;;;;;0.45;0.45;;;4.30;99.90;;;;;;5033115;28;20558;-77
2021/01/26 02:39:31;;;;;;;0.47;0.47;;;4.30;99.90;;;;;;5015477;28;20203;-78
2021/01/26 02:42:09;;;;;;;21.05;0.93;;;4.30;99.90;;;;;;5033176;28;20549;-77
2021/01/26 02:44:49;;;;;;;0.65;0.65;;;4.30;99.90;;;;;;5015157;28;20219;-78
2021/01/26 02:47:26;;;;;;;0.20;0.20;;;4.30;99.90;;;;;;5015363;28;20176;-78
2021/01/26 02:50:08;;;;;;;0.20;0.20;;;4.40;99.90;;;;;;5032960;28;20646;-78
2021/01/26 02:52:44;;;;;;;0.20;0.20;;;4.30;99.90;;;;;;5014918;28;20295;-77
2021/01/26 02:55:17;;;;;;;0.60;0.60;;;4.30;99.90;;;;;;5015157;28;20265;-78
2021/01/26 02:57:51;;;;;;;5.15;1.67;;;4.30;99.90;;;;;;5032904;28;20239;-78
2021/01/26 03:00:26;;;;;;;0.47;0.47;;;4.40;99.90;;;;;;5015198;28;20164;-78
2021/01/26 03:03:14;;;;;;;0.63;0.63;;;4.50;99.90;;;;;;5015204;28;20266;-78
2021/01/26 03:05:51;;;;;;;0.20;0.20;;;4.40;99.90;;;;;;5032560;28;20215;-77
2021/01/26 03:08:37;;;;;;;2.10;1.40;;;4.40;99.90;;;;;;5032982;28;20602;-78
2021/01/26 03:11:11;;;;;;;0.20;0.20;;;4.40;99.90;;;;;;5035264;28;20210;-77
2021/01/26 03:13:41;;;;;;;0.20;0.20;;;4.40;99.90;;;;;;5036624;28;20594;-77
2021/01/26 03:16:11;;;;;;;0.45;0.45;;;4.40;99.90;;;;;;5036432;28;20648;-78
2021/01/26 03:18:46;;;;;;;1.23;1.23;;;4.20;99.90;;;;;;5036838;28;20160;-78
2021/01/26 03:21:14;;;;;;;0.20;0.20;;;4.20;99.90;;;;;;5036659;28;20513;-78
2021/01/26 03:23:45;;;;;;;0.20;0.20;;;4.20;99.90;;;;;;5050794;22;20186;-74
2021/01/26 03:26:17;;;;;;;0.35;0.35;;;4.20;99.90;;;;;;4998569;28;20310;-75
2021/01/26 03:28:44;;;;;;;0.28;0.28;;;4.30;99.90;;;;;;5017052;28;20201;-76
2021/01/26 03:31:12;;;;;;;0.32;0.32;;;4.50;99.90;;;;;;4999298;28;20207;-77
2021/01/26 03:33:43;;;;;;;0.40;0.40;;;4.30;99.90;;;;;;5016740;28;20523;-78
2021/01/26 03:36:09;;;;;;;0.75;0.75;;;4.30;99.90;;;;;;5016600;28;20659;-77
2021/01/26 03:38:35;;;;;;;0.73;0.73;;;4.30;99.90;;;;;;5016719;28;20188;-77
2021/01/26 03:41:04;;;;;;;0.20;0.20;;;4.30;99.90;;;;;;5016662;28;20172;-77
2021/01/26 03:43:29;;;;;;;0.73;0.73;;;4.30;99.90;;;;;;5016659;28;20180;-77
2021/01/26 03:46:24;;;;;;;0.30;0.30;;;4.30;99.90;;;;;;5016395;28;20259;-77
2021/01/26 03:49:22;;;;;;;0.43;0.43;;;4.30;99.90;;;;;;5016487;28;20227;-75
2021/01/26 03:51:59;;;;;;;0.28;0.28;;;4.20;99.90;;;;;;5005835;28;20177;-77
2021/01/26 03:54:37;;;;;;;0.20;0.20;;;4.10;99.90;;;;;;5016438;28;20176;-78
2021/01/26 03:57:03;;;;;;;0.52;0.52;;;4.10;99.90;;;;;;5016334;28;20165;-77
2021/01/26 03:59:37;;;;;;;0.20;0.20;;;4.10;99.90;;;;;;5016194;28;20655;-78
2021/01/26 04:02:28;;;;;;;0.75;0.75;;;4.10;99.90;;;;;;5016355;28;20234;-78
2021/01/26 04:05:05;;;;;;;0.20;0.20;;;4.20;99.90;;;;;;5006775;28;20204;-76
2021/01/26 04:07:48;;;;;;;1.80;1.55;;;4.10;99.90;;;;;;5015923;28;20179;-77
2021/01/26 04:10:19;;;;;;;0.30;0.30;;;4.10;99.90;;;;;;5016248;28;20302;-78
2021/01/26 04:12:47;;;;;;;11.50;3.85;;;4.10;99.90;;;;;;5015992;28;20168;-78
2021/01/26 04:15:19;;;;;;;0.20;0.20;;;4.10;99.90;;;;;;5015914;28;20193;-78
2021/01/26 04:17:51;;;;;;;0.20;0.20;;;4.00;99.90;;;;;;5015810;28;20256;-78
2021/01/26 04:20:31;;;;;;;0.57;0.57;;;4.10;99.90;;;;;;5015753;28;20252;-78
2021/01/26 04:22:59;;;;;;;0.40;0.40;;;4.10;99.90;;;;;;5014922;28;20168;-78
2021/01/26 04:25:41;;;;;;;0.30;0.30;;;4.20;99.90;;;;;;5015434;28;20650;-78
2021/01/26 04:28:10;;;;;;;0.30;0.30;;;4.20;99.90;;;;;;5015755;28;20169;-76
2021/01/26 04:30:37;;;;;;;0.20;0.20;;;4.30;99.90;;;;;;5016048;28;20639;-76
2021/01/26 04:33:20;;;;;;;6.82;1.23;;;4.20;99.90;;;;;;5015778;28;20161;-76
2021/01/26 04:35:46;;;;;;;2.10;1.02;;;4.20;99.90;;;;;;5015552;28;20692;-76
2021/01/26 04:38:11;;;;;;;2.00;0.65;;;4.10;99.90;;;;;;5015522;28;20172;-77
2021/01/26 04:40:37;;;;;;;1.33;1.17;;;4.00;99.90;;;;;;5015465;28;20165;-78
2021/01/26 04:43:32;;;;;;;0.30;0.30;;;4.00;99.90;;;;;;5015347;28;20219;-75
2021/01/26 04:46:09;;;;;;;0.35;0.35;;;4.00;99.90;;;;;;5015219;28;20196;-77
2021/01/26 04:49:03;;;;;;;0.20;0.20;;;4.00;99.90;;;;;;5015398;28;20176;-76
2021/01/26 04:51:57;;;;;;;0.20;0.20;;;4.00;99.90;;;;;;5015247;28;20628;-77
2021/01/26 04:54:42;;;;;;;0.22;0.22;;;4.00;99.90;;;;;;5015298;28;20177;-76
2021/01/26 04:57:44;;;;;;;0.30;0.30;;;4.00;99.90;;;;;;5015167;28;20172;-77
2021/01/26 05:00:29;;;;;;;5.72;1.85;;;4.00;99.90;;;;;;5015157;28;20190;-78
2021/01/26 05:03:28;;;;;;;0.20;0.20;;;4.00;99.90;;;;;;5015283;28;20188;-78
2021/01/26 05:05:59;;;;;;;0.52;0.52;;;3.80;99.90;;;;;;5014909;28;20227;-77
2021/01/26 05:08:35;;;;;;;0.20;0.20;;;3.80;99.90;;;;;;5014781;28;20256;-77
2021/01/26 05:11:15;;;;;;;30.88;1.33;;;3.80;99.90;;;;;;4997341;28;20172;-78
2021/01/26 05:13:54;;;;;;;0.30;0.30;;;3.70;99.90;;;;;;5014826;28;20169;-77
2021/01/26 05:16:28;;;;;;;0.20;0.20;;;3.70;99.90;;;;;;5014758;28;20203;-76
2021/01/26 05:19:01;;;;;;;0.28;0.28;;;3.70;99.90;;;;;;5014766;28;20224;-77
2021/01/26 05:21:45;;;;;;;0.50;0.50;;;3.80;99.90;;;;;;4997002;28;20173;-78
2021/01/26 05:24:49;;;;;;;0.20;0.20;;;3.70;99.90;;;;;;5014520;28;20226;-78
2021/01/26 05:27:14;;;;;;;0.20;0.20;;;3.70;99.90;;;;;;4935230;29;20223;-78
2021/01/26 05:29:42;;;;;;;1.00;1.00;;;3.70;99.90;;;;;;4999839;28;20270;-76
2021/01/26 05:32:09;;;;;;;0.50;0.50;;;3.70;99.90;;;;;;5014128;28;20160;-75
2021/01/26 05:34:37;;;;;;;0.20;0.20;;;3.70;99.90;;;;;;5014534;28;20161;-77
2021/01/26 05:37:07;;;;;;;0.22;0.22;;;3.70;99.90;;;;;;5007038;28;20168;-77
2021/01/26 05:39:55;;;;;;;0.30;0.30;;;3.70;99.90;;;;;;5015080;28;20173;-77
2021/01/26 05:42:22;;;;;;;2.55;1.65;;;3.70;99.90;;;;;;5014797;28;20303;-77
2021/01/26 05:44:52;;;;;;;0.20;0.20;;;3.80;99.90;;;;;;5014490;28;20169;-78
2021/01/26 05:47:29;;;;;;;0.20;0.20;;;3.80;99.90;;;;;;5014824;28;20251;-78
2021/01/26 05:49:56;;;;;;;0.20;0.20;;;3.90;99.90;;;;;;5014554;28;20164;-78
2021/01/26 05:52:39;;;;;;;0.25;0.25;;;3.90;99.90;;;;;;5014731;28;20188;-78
2021/01/26 05:55:20;;;;;;;0.25;0.25;;;4.00;99.90;;;;;;5014590;28;20193;-78
2021/01/26 05:57:48;;;;;;;0.30;0.30;;;4.00;99.90;;;;;;5014349;28;20260;-77
2021/01/26 06:00:26;;;;;;;0.45;0.45;;;3.80;99.90;;;;;;5014176;28;20223;-77
2021/01/26 06:03:19;;;;;;;1.27;0.50;;;3.70;99.90;;;;;;5014081;28;20640;-77
2021/01/26 06:06:21;;;;;;;8.13;0.63;;;3.60;99.90;;;;;;5004189;28;20216;-77
2021/01/26 06:08:51;;;;;;;5.00;2.05;;;3.60;99.90;;;;;;5014092;28;20244;-78
2021/01/26 06:11:30;;;;;;;0.30;0.30;;;3.70;99.90;;;;;;5014127;28;20176;-77
2021/01/26 06:14:13;;;;;;;0.40;0.40;;;3.70;99.90;;;;;;5014180;28;20287;-76
2021/01/26 06:16:39;;;;;;;0.20;0.20;;;3.70;99.90;;;;;;5013836;28;20180;-78
2021/01/26 06:19:06;;;;;;;0.30;0.30;;;3.70;99.90;;;;;;5013876;28;20157;-78
2021/01/26 06:21:45;;;;;;;0.55;0.55;;;3.60;99.90;;;;;;5013650;28;20527;-78
2021/01/26 06:24:26;;;;;;;0.28;0.28;;;3.50;99.90;;;;;;5013564;28;20719;-79
2021/01/26 06:27:17;;;;;;;1.13;0.63;;;3.50;99.90;;;;;;5013516;28;20334;-76
2021/01/26 06:30:07;;;;;;;1.05;1.05;;;3.50;99.90;;;;;;4973193;28;20271;-76
2021/01/26 06:33:12;;;;;;;0.30;0.30;;;3.50;99.90;;;;;;5013556;28;20160;-76
2021/01/26 06:35:49;;;;;;;0.20;0.20;;;3.50;99.90;;;;;;5013358;28;20188;-77
2021/01/26 06:38:22;;;;;;;0.30;0.30;;;3.50;99.90;;;;;;5013571;28;20538;-76
2021/01/26 06:41:07;;;;;;;0.52;0.52;;;3.60;99.90;;;;;;4995880;28;20518;-77
2021/01/26 06:43:55;;;;;;;0.57;0.57;;;3.60;99.90;;;;;;5013247;28;20219;-76
2021/01/26 06:46:39;;;;;;;0.45;0.45;;;3.60;99.90;;;;;;5012936;28;20238;-75
2021/01/26 06:49:20;;;;;;;0.28;0.28;;;3.70;99.90;;;;;;5013197;28;20239;-77
2021/01/26 06:52:10;;;;;;;0.20;0.20;;;3.70;99.90;;;;;;5013278;28;20164;-76
2021/01/26 06:55:13;;;;;;;0.38;0.38;;;3.80;99.90;;;;;;5013080;28;20310;-77
2021/01/26 06:58:06;;;;;;;0.70;0.70;;;3.70;99.90;;;;;;5013426;28;20199;-75
2021/01/26 07:00:51;;;;;;;0.30;0.30;;;3.80;99.90;;;;;;5013113;28;20175;-75
2021/01/26 07:03:39;;;;;;;1.05;1.00;;;3.80;99.90;;;;;;5013408;28;20172;-77
2021/01/26 07:06:38;;;;;;;0.73;0.73;;;3.80;99.90;;;;;;5012527;28;20205;-77
2021/01/26 07:09:22;;;;;;;0.73;0.73;;;3.80;99.90;;;;;;5012942;28;20173;-74
2021/01/26 07:11:54;;;;;;;1.42;1.33;;;3.90;99.90;;;;;;5013079;28;20165;-76
2021/01/26 07:14:28;;;;;;;0.20;0.20;;;3.90;99.90;;;;;;5012773;28;20172;-75
2021/01/26 07:16:55;;;;;;;0.20;0.20;;;3.90;99.90;;;;;;5012676;28;20188;-77
2021/01/26 07:19:50;;;;;;;0.30;0.30;;;3.80;99.90;;;;;;5012890;28;20157;-78
2021/01/26 07:22:37;;;;;;;0.20;0.20;;;3.90;99.90;;;;;;5012949;28;20160;-77
2021/01/26 07:25:28;;;;;;;0.40;0.40;;;3.90;99.90;;;;;;5012476;28;20253;-74
2021/01/26 07:28:31;;;;;;;0.20;0.20;;;3.80;99.90;;;;;;5012609;28;20176;-77
2021/01/26 07:31:04;;;;;;;0.20;0.20;;;4.00;99.90;;;;;;5012413;28;20251;-78
2021/01/26 07:33:41;;;;;;;0.22;0.22;;;4.00;99.90;;;;;;5012660;28;20248;-75
2021/01/26 07:36:16;;;;;;;0.20;0.20;;;3.80;99.90;;;;;;5012292;28;20199;-77
2021/01/26 07:38:54;;;;;;;0.32;0.32;;;3.90;99.90;;;;;;5012500;28;20250;-75
2021/01/26 07:41:47;;;;;;;0.25;0.25;;;3.80;99.90;;;;;;5012541;28;20176;-74
2021/01/26 07:44:22;;;;;;;5.78;1.27;;;4.00;99.90;;;;;;5012163;28;20200;-78
2021/01/26 07:47:02;;;;;;;0.20;0.20;;;4.10;99.90;;;;;;5012509;28;20679;-77
2021/01/26 07:49:51;;;;;;;0.40;0.40;;;4.10;99.90;;;;;;5012728;28;20640;-77
2021/01/26 07:52:17;;;;;;;0.20;0.20;;;3.90;99.90;;;;;;5012621;28;20217;-77
2021/01/26 07:55:05;;;;;;;0.30;0.30;;;3.90;99.90;;;;;;5012683;28;20173;-75
2021/01/26 07:57:46;;;;;;;0.20;0.20;;;3.90;99.90;;;;;;5014005;28;20271;-76
2021/01/26 08:00:14;;;;;;;0.30;0.30;;;3.80;99.90;;;;;;5016248;28;20620;-76
2021/01/26 08:02:49;;;;;;;0.22;0.22;;;4.00;99.90;;;;;;5016644;28;20172;-74
2021/01/26 08:05:17;;;;;;;0.45;0.45;;;4.00;99.90;;;;;;5025102;28;20642;-77
2021/01/26 08:07:44;;;;;;;0.32;0.32;;;4.10;99.90;;;;;;5024463;28;20176;-79
2021/01/26 08:10:21;;;;;;;0.30;0.30;;;4.00;99.90;;;;;;5028255;28;20182;-80
2021/01/26 08:12:48;;;;;;;0.28;0.28;;;4.00;99.90;;;;;;5035658;28;20159;-79
2021/01/26 08:15:21;;;;;;;0.45;0.45;;;4.00;99.90;;;;;;5022479;28;20592;-79
2021/01/26 08:17:48;;;;;;;7.88;0.73;;;4.10;99.90;;;;;;5024061;28;20168;-79
2021/01/26 08:20:31;;;;;;;0.30;0.30;;;4.10;99.90;;;;;;5023775;28;20627;-77
2021/01/26 08:23:01;;;;;;;0.20;0.20;;;4.10;99.90;;;;;;5003914;28;20940;-79
2021/01/26 08:25:37;;;;;;;0.30;0.30;;;4.10;99.90;;;;;;5014569;28;20266;-76
2021/01/26 08:28:06;;;;;;;0.75;0.75;;;4.30;99.90;;;;;;4997096;28;20190;-78
2021/01/26 08:30:50;;;;;;;4.38;1.35;;;4.20;99.90;;;;;;5014538;28;20169;-80
2021/01/26 08:33:45;;;;;;;4.03;1.02;;;4.30;99.90;;;;;;5014867;28;20251;-77
2021/01/26 08:36:34;;;;;;;2.35;1.70;;;4.20;99.90;;;;;;4998365;28;20227;-81
2021/01/26 08:39:40;;;;;;;0.35;0.35;;;4.40;99.90;;;;;;4997811;28;20222;-78
2021/01/26 08:42:08;;;;;;;0.28;0.28;;;4.50;99.90;;;;;;5014655;28;20157;-78
2021/01/26 08:44:34;;;;;;;0.25;0.25;;;4.60;99.90;;;;;;5013694;28;20173;-75
2021/01/26 08:46:59;;;;;;;2.13;0.45;;;4.50;99.90;;;;;;5014938;28;20529;-74
2021/01/26 08:49:31;;;;;;;0.30;0.30;;;4.60;99.90;;;;;;5017539;28;20175;-76
2021/01/26 08:52:25;;;;;;;0.20;0.20;;;4.60;99.90;;;;;;5014439;28;20235;-79
2021/01/26 08:54:55;;;;;;;0.22;0.22;;;4.40;99.90;;;;;;5014931;28;20181;-80
2021/01/26 08:57:26;;;;;;;0.30;0.30;;;4.50;99.90;;;;;;5014477;28;20244;-80
2021/01/26 08:59:57;;;;;;;0.75;0.75;;;4.40;99.90;;;;;;5014462;28;20173;-76
2021/01/26 09:02:39;;;;;;;0.20;0.20;;;4.50;99.90;;;;;;5015023;28;20196;-80
2021/01/26 09:05:06;;;;;;;0.20;0.20;;;4.50;99.90;;;;;;5014249;28;20307;-80
2021/01/26 09:08:05;;;;;;;0.30;0.30;;;4.60;99.90;;;;;;5014160;28;20667;-78
2021/01/26 09:10:35;;;;;;;0.45;0.45;;;4.80;99.90;;;;;;5013927;28;20169;-81
2021/01/26 09:13:12;;;;;;;15.98;1.67;;;4.90;99.90;;;;;;5014622;28;20579;-79
2021/01/26 09:15:56;;;;;;;0.30;0.30;;;5.00;99.90;;;;;;5014570;28;20188;-79
2021/01/26 09:18:25;;;;;;;0.40;0.40;;;4.80;99.90;;;;;;5014391;28;20172;-79
2021/01/26 09:20:57;;;;;;;0.55;0.55;;;4.60;99.90;;;;;;5013954;28;20164;-80
2021/01/26 09:23:23;;;;;;;1.00;0.82;;;4.50;99.90;;;;;;4999561;28;20177;-79
2021/01/26 09:25:49;;;;;;;0.22;0.22;;;4.40;99.90;;;;;;4994318;28;20342;-79
2021/01/26 09:28:19;;;;;;;0.30;0.30;;;4.60;99.90;;;;;;4994538;28;20753;-77
2021/01/26 09:30:47;;;;;;;0.73;0.47;;;4.60;99.90;;;;;;4994228;28;20173;-75
2021/01/26 09:33:12;;;;;;;0.40;0.40;;;4.60;99.90;;;;;;4994129;28;20173;-79
2021/01/26 09:36:01;;;;;;;2.08;1.05;;;4.60;99.90;;;;;;4994497;28;20208;-78
2021/01/26 09:38:27;;;;;;;3.03;1.48;;;4.80;99.90;;;;;;4982294;28;20188;-78
2021/01/26 09:41:01;;;;;;;0.63;0.63;;;4.90;99.90;;;;;;4994166;28;20172;-77
2021/01/26 09:43:29;;;;;;;0.43;0.43;;;5.00;99.90;;;;;;4994607;28;20200;-82
2021/01/26 09:46:04;;;;;;;0.95;0.95;;;5.10;99.90;;;;;;4993710;28;20193;-77
2021/01/26 09:48:34;;;;;;;0.80;0.80;;;5.20;99.90;;;;;;4994436;28;20153;-79
2021/01/26 09:51:27;;;;;;;0.20;0.20;;;5.20;99.90;;;;;;4994222;28;20241;-78
2021/01/26 09:54:03;;;;;;;0.40;0.40;;;5.10;99.90;;;;;;4985876;28;20228;-77
2021/01/26 09:56:33;;;;;;;0.57;0.57;;;5.30;99.90;;;;;;4994055;28;20227;-78
2021/01/26 09:58:59;;;;;;;0.30;0.30;;;5.20;99.90;;;;;;4994163;28;20162;-78
2021/01/26 10:01:25;;;;;;;0.40;0.40;;;5.30;99.90;;;;;;4993831;28;20169;-79
2021/01/26 10:03:58;;;;;;;0.20;0.20;;;5.40;99.90;;;;;;4998082;28;20276;-76
2021/01/26 10:06:24;;;;;;;0.45;0.45;;;5.30;99.90;;;;;;4995063;28;20208;-78
2021/01/26 10:08:50;;;;;;;5.57;2.28;;;5.30;99.90;;;;;;5013276;28;20176;-74
2021/01/26 10:11:19;;;;;;;0.35;0.35;;;5.40;99.90;;;;;;5013232;28;20184;-76
2021/01/26 10:13:46;;;;;;;0.60;0.60;;;5.70;99.90;;;;;;5013130;28;20171;-77
2021/01/26 10:16:27;;;;;;;0.43;0.43;;;5.70;99.90;;;;;;5013175;28;20200;-78
2021/01/26 10:18:54;;;;;;;3.00;0.57;;;5.90;99.90;;;;;;5013510;28;20189;-75
2021/01/26 10:21:30;;;;;;;0.20;0.20;;;6.00;99.90;;;;;;5011797;28;20175;-78
2021/01/26 10:24:11;;;;;;;0.35;0.35;;;6.00;99.90;;;;;;5011176;28;20179;-75
2021/01/26 10:26:42;;;;;;;0.40;0.40;;;5.90;99.90;;;;;;4998144;28;20220;-75
2021/01/26 10:29:12;;;;;;;1.10;1.02;;;5.80;99.90;;;;;;4993458;28;20704;-78
2021/01/26 10:31:53;;;;;;;0.20;0.20;;;5.90;99.90;;;;;;4975734;28;20181;-73
2021/01/26 10:34:31;;;;;;;13.05;1.38;;;5.90;99.90;;;;;;4993401;28;20193;-77
2021/01/26 10:37:15;;;;;;;6.93;1.35;;;5.80;99.90;;;;;;4993146;28;20280;-76
2021/01/26 10:39:43;;;;;;;1.75;1.55;;;6.00;99.90;;;;;;4992949;28;20172;-78
2021/01/26 10:42:22;;;;;;;0.38;0.38;;;6.20;99.90;;;;;;4992779;28;20158;-79
2021/01/26 10:44:51;;;;;;;0.30;0.30;;;6.40;99.90;;;;;;4975463;28;20180;-78
2021/01/26 10:47:23;;;;;;;0.60;0.60;;;6.50;99.90;;;;;;4993195;28;20205;-78
2021/01/26 10:49:57;;;;;;;4.55;0.85;;;6.40;99.90;;;;;;4992891;28;20165;-78
2021/01/26 10:52:37;;;;;;;1.00;0.93;;;6.40;99.90;;;;;;4993156;28;20226;-77
2021/01/26 10:55:04;;;;;;;0.98;0.98;;;6.40;99.90;;;;;;4993246;28;20754;-79
2021/01/26 10:57:29;;;;;;;9.77;1.05;;;6.30;99.90;;;;;;4992775;28;20165;-79
2021/01/26 10:59:55;;;;;;;0.40;0.40;;;6.30;99.90;;;;;;4992897;28;20231;-76
2021/01/26 11:02:21;;;;;;;0.50;0.50;;;6.20;99.90;;;;;;4993394;28;20173;-77
2021/01/26 11:04:46;;;;;;;0.32;0.32;;;6.10;99.90;;;;;;4993235;28;20164;-75
2021/01/26 11:07:12;;;;;;;0.57;0.57;;;6.10;99.90;;;;;;4993045;28;20316;-79
2021/01/26 11:09:37;;;;;;;0.90;0.85;;;6.10;99.90;;;;;;4992944;28;20176;-76
2021/01/26 11:12:03;;;;;;;0.47;0.40;;;6.10;99.90;;;;;;4992736;28;20180;-79
2021/01/26 11:14:29;;;;;;;3.20;1.30;;;6.00;99.90;;;;;;4992993;28;20208;-78
2021/01/26 11:16:55;;;;;;;0.35;0.35;;;6.00;99.90;;;;;;4992770;28;20189;-74
2021/01/26 11:19:21;;;;;;;2.53;1.10;;;6.00;99.90;;;;;;4992325;28;20204;-77
2021/01/26 11:21:47;;;;;;;0.35;0.35;;;6.00;99.90;;;;;;4999279;28;20206;-79
2021/01/26 11:24:13;;;;;;;0.35;0.35;;;5.90;99.90;;;;;;4992381;28;20311;-78
2021/01/26 11:26:38;;;;;;;0.25;0.25;;;6.00;99.90;;;;;;4992932;28;20260;-75
2021/01/26 11:29:04;;;;;;;0.43;0.43;;;6.10;99.90;;;;;;4993034;28;20677;-78
2021/01/26 11:31:29;;;;;;;0.25;0.25;;;6.00;99.90;;;;;;4993647;28;20177;-79
2021/01/26 11:33:55;;;;;;;12.40;2.20;;;6.00;99.90;;;;;;4996398;28;20518;-79
2021/01/26 11:36:21;;;;;;;1.77;0.50;;;6.10;99.90;;;;;;4996418;28;20550;-75
2021/01/26 11:38:46;;;;;;;0.73;0.73;;;6.30;99.90;;;;;;4996661;28;20166;-76
2021/01/26 11:41:12;;;;;;;0.30;0.30;;;6.40;99.90;;;;;;4996236;28;20193;-79
2021/01/26 11:43:38;;;;;;;0.77;0.77;;;6.40;99.90;;;;;;4996229;28;20173;-79
2021/01/26 11:46:05;;;;;;;0.77;0.77;;;6.30;99.90;;;;;;4996165;28;20665;-79
2021/01/26 11:48:31;;;;;;;0.43;0.43;;;6.50;99.90;;;;;;5009904;28;20256;-77
2021/01/26 11:50:58;;;;;;;0.30;0.30;;;6.60;99.90;;;;;;5015667;28;20177;-76
2021/01/26 11:53:24;;;;;;;0.40;0.40;;;6.50;99.90;;;;;;5001132;28;20516;-80
2021/01/26 11:55:51;;;;;;;0.77;0.77;;;6.40;99.90;;;;;;4996372;28;20200;-77
2021/01/26 11:58:17;;;;;;;0.30;0.30;;;6.60;99.90;;;;;;4996326;28;20169;-77
2021/01/26 12:00:43;;;;;;;1.33;1.23;;;6.80;99.90;;;;;;4978204;28;20184;-76
2021/01/26 12:03:09;;;;;;;0.85;0.80;;;6.90;99.90;;;;;;4995769;28;20169;-78
2021/01/26 12:05:37;;;;;;;2.00;0.73;;;6.70;99.90;;;;;;4995713;28;20252;-78
2021/01/26 12:08:04;;;;;;;0.95;0.95;;;6.70;99.90;;;;;;4995918;28;20207;-78
2021/01/26 12:10:30;;;;;;;0.75;0.70;;;6.70;99.90;;;;;;4994805;28;20676;-77
2021/01/26 12:12:55;;;;;;;0.40;0.40;;;6.60;99.90;;;;;;4995215;28;20245;-78
2021/01/26 12:15:27;;;;;;;0.22;0.22;;;6.50;99.90;;;;;;4995746;28;20588;-78
2021/01/26 12:17:53;;;;;;;0.75;0.68;;;6.40;99.90;;;;;;4986639;28;20193;-77
2021/01/26 12:20:20;;;;;;;2.47;1.52;;;6.30;99.90;;;;;;5014654;28;20654;-79
2021/01/26 12:22:46;;;;;;;0.52;0.50;;;6.30;99.90;;;;;;5014802;28;20212;-77
2021/01/26 12:25:15;;;;;;;0.30;0.30;;;6.30;99.90;;;;;;5015087;28;20287;-78
2021/01/26 12:27:40;;;;;;;0.63;0.63;;;6.30;99.90;;;;;;5015058;28;20184;-79
2021/01/26 12:30:07;;;;;;;0.38;0.38;;;6.40;99.90;;;;;;5015441;28;20176;-78
2021/01/26 12:32:33;;;;;;;0.68;0.68;;;6.50;99.90;;;;;;5015023;28;20165;-74
2021/01/26 12:35:00;;;;;;;0.57;0.57;;;6.60;99.90;;;;;;5014857;28;20180;-78
2021/01/26 12:37:26;;;;;;;0.70;0.70;;;6.60;99.90;;;;;;5014681;28;20550;-76
2021/01/26 12:39:51;;;;;;;1.02;0.93;;;6.70;99.90;;;;;;4997110;28;20173;-77
2021/01/26 12:42:17;;;;;;;0.57;0.57;;;6.70;99.90;;;;;;5015008;28;20168;-80
2021/01/26 12:44:43;;;;;;;1.13;1.05;;;6.70;99.90;;;;;;5014470;28;20588;-78
2021/01/26 12:47:10;;;;;;;0.60;0.60;;;6.80;99.90;;;;;;5014619;28;20681;-81
2021/01/26 12:49:36;;;;;;;16.88;3.95;;;6.90;99.90;;;;;;5014604;28;20169;-76
2021/01/26 12:52:02;;;;;;;0.20;0.20;;;6.90;99.90;;;;;;5014936;28;20184;-75
2021/01/26 12:54:27;;;;;;;2.17;1.88;;;6.90;99.90;;;;;;5014816;28;20179;-77
2021/01/26 12:56:53;;;;;;;0.50;0.50;;;6.90;99.90;;;;;;5014268;28;20204;-79
2021/01/26 12:59:19;;;;;;;7.07;1.05;;;6.90;99.90;;;;;;5014891;28;20188;-77
2021/01/26 13:01:45;;;;;;;0.93;0.93;;;7.00;99.90;;;;;;4996874;28;20164;-79
2021/01/26 13:04:10;;;;;;;1.02;1.02;;;6.80;99.90;;;;;;5014212;28;20180;-79
2021/01/26 13:06:36;;;;;;;0.40;0.40;;;6.80;99.90;;;;;;4996028;28;20228;-76
2021/01/26 13:09:02;;;;;;;0.43;0.43;;;7.00;99.90;;;;;;5014226;28;20195;-77
2021/01/26 13:11:28;;;;;;;0.50;0.50;;;6.90;99.90;;;;;;4996667;28;20169;-77
2021/01/26 13:13:53;;;;;;;0.20;0.20;;;6.70;99.90;;;;;;5014334;28;20179;-78
2021/01/26 13:16:19;;;;;;;2.65;0.90;;;6.90;99.90;;;;;;5014388;28;20189;-75
2021/01/26 13:18:45;;;;;;;0.43;0.40;;;6.90;99.90;;;;;;5013772;28;20169;-78
2021/01/26 13:21:11;;;;;;;0.43;0.43;;;6.90;99.90;;;;;;5024414;28;20198;-78
2021/01/26 13:23:37;;;;;;;0.30;0.30;;;6.70;99.90;;;;;;5001033;28;20173;-78
2021/01/26 13:26:02;;;;;;;0.20;0.20;;;6.80;99.90;;;;;;4994114;28;20208;-80
2021/01/26 13:28:28;;;;;;;1.33;0.93;;;6.90;99.90;;;;;;4994815;28;20169;-78
2021/01/26 13:30:54;;;;;;;0.45;0.32;;;6.90;99.90;;;;;;4993546;28;20169;-76